MSC Lisbon — A8LL9 — position and weather

sailwx.info

Track history (hours):
 
Tides and Currents Weather Stations Pressure Air Temp Water Temp Dewpoint Dewpoint Depression Visibility Wind Speed Wind Dir Waves Ship Positions

MSC Lisbon

Last reported at 2016-Aug-10 01:06 UTC. Time now 2016-Aug-28 16:41 UTC.
Position N 31°28' E 032°20'.
Warning: this ship's position is 18 days out of date.

Length 336.7 m; beam 45.6 m; draft 15.3 m.

Type: Ship (hazmat cat A). MMSI: 636091276.

Date/timePositionNaut miles runAvg speedWind from/ knotsBaromVisibWave heightAir tempDewpointWater temp
2016-Aug-10 01:06N 31°28' E 032°20'0 0.1
2016-Aug-10 00:33N 31°28' E 032°20'0 0.0
2016-Aug-09 23:21N 31°28' E 032°20'0 0.0
2016-Aug-09 22:33N 31°28' E 032°20'0 0.0
2016-Aug-09 21:27N 31°28' E 032°20'0 0.0
2016-Aug-09 20:33N 31°28' E 032°20'6 6.4
2016-Aug-09 19:33N 31°31' E 032°13'1919.0
2016-Aug-09 18:33N 31°45' E 031°57'2020.3
2016-Aug-09 17:33N 31°54' E 031°36'2020.2
2016-Aug-09 16:33N 32°03' E 031°15'2020.1
2016-Aug-09 15:33N 32°12' E 030°54'2120.0
2016-Aug-09 14:31N 32°21' E 030°31'2020.1
2016-Aug-09 13:31N 32°26' E 030°09'80120.0
2016-Aug-07 21:33N 36°11' E 014°38'2019.5
2016-Aug-07 20:33N 36°16' E 014°15'2019.8
2016-Aug-07 19:33N 36°21' E 013°51'2019.9
2016-Aug-07 18:33N 36°27' E 013°28'2019.7
2016-Aug-07 17:33N 36°34' E 013°05'2519.7
2016-Aug-07 16:17N 36°45' E 012°37'1419.9
2016-Aug-07 15:33N 36°51' E 012°21'71519.3
2016-Aug-06 02:29N 36°19' W 002°29'1919.6
2016-Aug-06 01:30N 36°17' W 002°53'11120.7
2016-Aug-05 20:06N 36°01' W 005°10'1222.1
2016-Aug-05 19:34N 35°58' W 005°24'16120.2
2016-Aug-05 11:33N 36°27' W 008°41'2120.2
2016-Aug-05 10:31N 36°33' W 009°06'1919.5
2016-Aug-05 09:32N 36°42' W 009°27'1919.0
2016-Aug-05 08:31N 37°01' W 009°34'2020.3
2016-Aug-05 07:32N 37°17' W 009°20'2020.2
2016-Aug-05 06:32N 37°34' W 009°06'2512.5
2016-Aug-05 04:33N 37°56' W 008°51'0 0.0
2016-Aug-05 03:33N 37°56' W 008°51'0 0.0
2016-Aug-05 02:32N 37°56' W 008°51'0 0.0
2016-Aug-05 01:32N 37°56' W 008°51'0 0.0
2016-Aug-05 00:32N 37°56' W 008°51'0 0.0
2016-Aug-04 23:29N 37°56' W 008°51'0 0.0
2016-Aug-04 22:29N 37°56' W 008°51'0 0.0
2016-Aug-04 21:32N 37°56' W 008°51'0 0.0
2016-Aug-04 20:32N 37°56' W 008°51'0 0.0
2016-Aug-04 19:32N 37°56' W 008°51'0 0.0
2016-Aug-04 18:32N 37°56' W 008°51'0 0.0
2016-Aug-04 17:32N 37°56' W 008°51'0 0.0
2016-Aug-04 16:32N 37°56' W 008°51'0 0.0
2016-Aug-04 15:32N 37°56' W 008°51'0 0.0
2016-Aug-04 14:32N 37°56' W 008°51'0 0.0
2016-Aug-04 13:32N 37°56' W 008°51'0 0.0
2016-Aug-04 12:32N 37°56' W 008°51'0 0.0
2016-Aug-04 11:32N 37°56' W 008°51'0 0.0
2016-Aug-04 10:32N 37°56' W 008°51'0 0.0
2016-Aug-04 09:32N 37°56' W 008°51'0 0.0
2016-Aug-04 08:29N 37°56' W 008°51'0 0.4
2016-Aug-04 07:33N 37°56' W 008°51'4 3.8
2016-Aug-04 06:33N 37°54' W 008°55'1 0.6
2016-Aug-04 04:33N 37°53' W 008°55'1 0.8
2016-Aug-04 03:33N 37°54' W 008°55'1 0.7
2016-Aug-04 02:33N 37°54' W 008°56'7 7.1
2016-Aug-04 01:33N 37°53' W 009°04'9 8.5
2016-Aug-04 00:33N 37°55' W 009°15'8 8.4
2016-Aug-03 23:33N 37°56' W 009°26'8 8.4
2016-Aug-03 22:33N 37°57' W 009°36'8 8.2
2016-Aug-03 21:33N 37°58' W 009°46'8 8.1
2016-Aug-03 20:34N 37°58' W 009°57'8 8.2
2016-Aug-03 19:33N 37°59' W 010°07'8 8.4
2016-Aug-03 18:33N 38°01' W 010°18'8 8.3
2016-Aug-03 17:34N 38°02' W 010°28'1110.7
2016-Aug-03 16:33N 38°03' W 010°42'1413.9
2016-Aug-03 15:33N 38°05' W 010°59'1414.1
2016-Aug-03 14:33N 38°06' W 011°17'1414.1
2016-Aug-03 13:33N 38°08' W 011°35'1414.3
2016-Aug-03 12:33N 38°09' W 011°53'1714.1
2016-Aug-03 11:21N 38°11' W 012°14'1113.6
2016-Aug-03 10:33N 38°12' W 012°28'1413.9
2016-Aug-03 09:33N 38°13' W 012°46'1414.1
2016-Aug-03 08:32N 38°14' W 013°04'1414.2
2016-Aug-03 07:33N 38°16' W 013°22'1413.7
2016-Aug-03 06:32N 38°17' W 013°39'48014.1
2016-Aug-01 20:32N 38°24' W 023°51'1414.2
2016-Aug-01 19:33N 38°24' W 024°09'1413.9
2016-Aug-01 18:33N 38°23' W 024°26'1414.2
2016-Aug-01 17:34N 38°22' W 024°44'1414.2
2016-Aug-01 16:33N 38°22' W 025°03'1414.0
2016-Aug-01 15:33N 38°21' W 025°20'1414.3
2016-Aug-01 14:33N 38°20' W 025°39'1414.2
2016-Aug-01 13:33N 38°19' W 025°57'1413.8
2016-Aug-01 12:33N 38°18' W 026°14'1414.5
2016-Aug-01 11:34N 38°17' W 026°33'1414.1
2016-Aug-01 10:33N 38°16' W 026°50'1414.2
2016-Aug-01 09:33N 38°15' W 027°09'1414.3
2016-Aug-01 08:33N 38°14' W 027°27'1414.3
2016-Aug-01 07:34N 38°13' W 027°45'2814.1
2016-Aug-01 05:33N 38°11' W 028°21'1414.1
2016-Aug-01 04:33N 38°09' W 028°38'1414.1
2016-Aug-01 03:33N 38°07' W 028°56'1414.4
2016-Aug-01 02:33N 38°06' W 029°15'1414.2
2016-Aug-01 01:34N 38°05' W 029°32'1414.0
2016-Aug-01 00:33N 38°04' W 029°50'1414.1
2016-Jul-31 23:33N 38°02' W 030°08'  
Track history (hours):
 
Tides and Currents Weather Stations Pressure Air Temp Water Temp Dewpoint Dewpoint Depression Visibility Wind Speed Wind Dir Waves Ship Positions

MSC Lisbon

Last reported at 2016-Aug-10 01:06 UTC. Time now 2016-Aug-28 16:41 UTC.
Position N 31°28' E 032°20'.
Warning: this ship's position is 18 days out of date.

Length 336.7 m; beam 45.6 m; draft 15.3 m.

Type: Ship (hazmat cat A). MMSI: 636091276.

Date/timePositionNaut miles runAvg speedWind from/ knotsBaromVisibWave heightAir tempDewpointWater temp
2016-Aug-10 01:06N 31°28' E 032°20'0 0.1
2016-Aug-10 00:33N 31°28' E 032°20'0 0.0
2016-Aug-09 23:21N 31°28' E 032°20'0 0.0
2016-Aug-09 22:33N 31°28' E 032°20'0 0.0
2016-Aug-09 21:27N 31°28' E 032°20'0 0.0
2016-Aug-09 20:33N 31°28' E 032°20'6 6.4
2016-Aug-09 19:33N 31°31' E 032°13'1919.0
2016-Aug-09 18:33N 31°45' E 031°57'2020.3
2016-Aug-09 17:33N 31°54' E 031°36'2020.2
2016-Aug-09 16:33N 32°03' E 031°15'2020.1
2016-Aug-09 15:33N 32°12' E 030°54'2120.0
2016-Aug-09 14:31N 32°21' E 030°31'2020.1
2016-Aug-09 13:31N 32°26' E 030°09'80120.0
2016-Aug-07 21:33N 36°11' E 014°38'2019.5
2016-Aug-07 20:33N 36°16' E 014°15'2019.8
2016-Aug-07 19:33N 36°21' E 013°51'2019.9
2016-Aug-07 18:33N 36°27' E 013°28'2019.7
2016-Aug-07 17:33N 36°34' E 013°05'2519.7
2016-Aug-07 16:17N 36°45' E 012°37'1419.9
2016-Aug-07 15:33N 36°51' E 012°21'71519.3
2016-Aug-06 02:29N 36°19' W 002°29'1919.6
2016-Aug-06 01:30N 36°17' W 002°53'11120.7
2016-Aug-05 20:06N 36°01' W 005°10'1222.1
2016-Aug-05 19:34N 35°58' W 005°24'16120.2
2016-Aug-05 11:33N 36°27' W 008°41'2120.2
2016-Aug-05 10:31N 36°33' W 009°06'1919.5
2016-Aug-05 09:32N 36°42' W 009°27'1919.0
2016-Aug-05 08:31N 37°01' W 009°34'2020.3
2016-Aug-05 07:32N 37°17' W 009°20'2020.2
2016-Aug-05 06:32N 37°34' W 009°06'2512.5
2016-Aug-05 04:33N 37°56' W 008°51'0 0.0
2016-Aug-05 03:33N 37°56' W 008°51'0 0.0
2016-Aug-05 02:32N 37°56' W 008°51'0 0.0
2016-Aug-05 01:32N 37°56' W 008°51'0 0.0
2016-Aug-05 00:32N 37°56' W 008°51'0 0.0
2016-Aug-04 23:29N 37°56' W 008°51'0 0.0
2016-Aug-04 22:29N 37°56' W 008°51'0 0.0
2016-Aug-04 21:32N 37°56' W 008°51'0 0.0
2016-Aug-04 20:32N 37°56' W 008°51'0 0.0
2016-Aug-04 19:32N 37°56' W 008°51'0 0.0
2016-Aug-04 18:32N 37°56' W 008°51'0 0.0
2016-Aug-04 17:32N 37°56' W 008°51'0 0.0
2016-Aug-04 16:32N 37°56' W 008°51'0 0.0
2016-Aug-04 15:32N 37°56' W 008°51'0 0.0
2016-Aug-04 14:32N 37°56' W 008°51'0 0.0
2016-Aug-04 13:32N 37°56' W 008°51'0 0.0
2016-Aug-04 12:32N 37°56' W 008°51'0 0.0
2016-Aug-04 11:32N 37°56' W 008°51'0 0.0
2016-Aug-04 10:32N 37°56' W 008°51'0 0.0
2016-Aug-04 09:32N 37°56' W 008°51'0 0.0
2016-Aug-04 08:29N 37°56' W 008°51'0 0.4
2016-Aug-04 07:33N 37°56' W 008°51'4 3.8
2016-Aug-04 06:33N 37°54' W 008°55'1 0.6
2016-Aug-04 04:33N 37°53' W 008°55'1 0.8
2016-Aug-04 03:33N 37°54' W 008°55'1 0.7
2016-Aug-04 02:33N 37°54' W 008°56'7 7.1
2016-Aug-04 01:33N 37°53' W 009°04'9 8.5
2016-Aug-04 00:33N 37°55' W 009°15'8 8.4
2016-Aug-03 23:33N 37°56' W 009°26'8 8.4
2016-Aug-03 22:33N 37°57' W 009°36'8 8.2
2016-Aug-03 21:33N 37°58' W 009°46'8 8.1
2016-Aug-03 20:34N 37°58' W 009°57'8 8.2
2016-Aug-03 19:33N 37°59' W 010°07'8 8.4
2016-Aug-03 18:33N 38°01' W 010°18'8 8.3
2016-Aug-03 17:34N 38°02' W 010°28'1110.7
2016-Aug-03 16:33N 38°03' W 010°42'1413.9
2016-Aug-03 15:33N 38°05' W 010°59'1414.1
2016-Aug-03 14:33N 38°06' W 011°17'1414.1
2016-Aug-03 13:33N 38°08' W 011°35'1414.3
2016-Aug-03 12:33N 38°09' W 011°53'1714.1
2016-Aug-03 11:21N 38°11' W 012°14'1113.6
2016-Aug-03 10:33N 38°12' W 012°28'1413.9
2016-Aug-03 09:33N 38°13' W 012°46'1414.1
2016-Aug-03 08:32N 38°14' W 013°04'1414.2
2016-Aug-03 07:33N 38°16' W 013°22'1413.7
2016-Aug-03 06:32N 38°17' W 013°39'48014.1
2016-Aug-01 20:32N 38°24' W 023°51'1414.2
2016-Aug-01 19:33N 38°24' W 024°09'1413.9
2016-Aug-01 18:33N 38°23' W 024°26'1414.2
2016-Aug-01 17:34N 38°22' W 024°44'1414.2
2016-Aug-01 16:33N 38°22' W 025°03'1414.0
2016-Aug-01 15:33N 38°21' W 025°20'1414.3
2016-Aug-01 14:33N 38°20' W 025°39'1414.2
2016-Aug-01 13:33N 38°19' W 025°57'1413.8
2016-Aug-01 12:33N 38°18' W 026°14'1414.5
2016-Aug-01 11:34N 38°17' W 026°33'1414.1
2016-Aug-01 10:33N 38°16' W 026°50'1414.2
2016-Aug-01 09:33N 38°15' W 027°09'1414.3
2016-Aug-01 08:33N 38°14' W 027°27'1414.3
2016-Aug-01 07:34N 38°13' W 027°45'2814.1
2016-Aug-01 05:33N 38°11' W 028°21'1414.1
2016-Aug-01 04:33N 38°09' W 028°38'1414.1
2016-Aug-01 03:33N 38°07' W 028°56'1414.4
2016-Aug-01 02:33N 38°06' W 029°15'1414.2
2016-Aug-01 01:34N 38°05' W 029°32'1414.0
2016-Aug-01 00:33N 38°04' W 029°50'1414.1
2016-Jul-31 23:33N 38°02' W 030°08'  

Dump ship's entire track history